Harmony, CA

10:38 AM PDT on May 23, 2015 (GMT -0700)
Tower, Decker Ranch | | Change Station
CLOSE
Current Station
Personal Weather Station
Location: Cambria, CA
Elevation: 615 ft
Nearby Weather Stations

Elev 615 ft 35.53 °N, 121.06 °W | Updated 15 hours ago

Clear
Clear
62 °F
Feels Like 62 °F
N
16
Wind Variable Wind from WNW
Gusts mph

Today
High -- | Low -- °F
--% Chance of Precip.
Yesterday
High -- | Low -- °F
Precip. -- in
5:54 AM 8:08 PM
Waxing Crescent, 31% visible
Pressure 30.10 in
Visibility 10.0 miles
Clouds Overcast 1800 ft
Dew Point 48 °F
Humidity 61%
Rainfall in
Snow Depth Not available.
UV 2 out of 12
Pollen 5.60 out of 12
Air Quality Not available.
Flu Activity Sporadic
METAR KPRB 231653Z AUTO 31005KT 10SM OVC018 14/09 A3011 RMK AO2 SLP193 T01440089 TSNO

More Conditions Fewer Conditions

Pressure 30.10 in
Visibility 10.0 miles
Clouds Overcast 1800 ft
Dew Point 48 °F
Humidity 61%
Rainfall in
Snow Depth Not available.
UV 2 out of 12
Pollen 5.60 out of 12
Air Quality Not available.
Flu Activity Sporadic
METAR KPRB 231653Z AUTO 31005KT 10SM OVC018 14/09 A3011 RMK AO2 SLP193 T01440089 TSNO

More Conditions Fewer Conditions

10-Day Weather Forecast

Almanac

Astronomy

May. 23, 2015 Rise Set
Actual Time
Civil Twilight
Nautical Twilight
Astronomical Twilight
Moon
Length of Visible Light
Length of Day
Tomorrow will be .
, % of the Moon is Illuminated

Today's Extremes

State Highs State Lows

Community

WunderPhotos

Upload Photos

1,823,525 photos uploaded!

WunderBlogs® & News

Nearby

Air Quality

  Air Quality AQ Index Pollutant
Not available.

Snow Depth

Station Depth Elevation

Earthquake Activity

City Distance Mag. Time & Date
Minimum magnitude displayed is 2.5.

Coastal Water Temperatures

Place Temperature

Stations

Nearby Weather Stations

Station Location Temp. Windchill Dew Point Humidity Wind Precip. Elev Updated Type